sensor_id;sensor_type;location;lat;lon;timestamp;pressure;altitude;pressure_sealevel;temperature;humidity
23253;BME280;11795;47.054;15.408;2023-07-13T00:00:02;97160;;;22.7;56.9
23253;BME280;11795;47.054;15.408;2023-07-13T00:02:01;97150;;;22.8;56.8
23253;BME280;11795;47.054;15.408;2023-07-13T00:04:01;97150;;;22.8;56.7
23253;BME280;11795;47.054;15.408;2023-07-13T00:06:01;97140;;;22.7;57.0
23253;BME280;11795;47.054;15.408;2023-07-13T00:08:00;97140;;;22.9;56.4
23253;BME280;11795;47.054;15.408;2023-07-13T00:10:01;97140;;;22.7;56.8
23253;BME280;11795;47.054;15.408;2023-07-13T00:12:01;97140;;;22.8;56.8
23253;BME280;11795;47.054;15.408;2023-07-13T00:14:00;97140;;;22.8;56.7
23253;BME280;11795;47.054;15.408;2023-07-13T00:16:01;97140;;;22.7;57.2
23253;BME280;11795;47.054;15.408;2023-07-13T00:18:01;97130;;;22.9;56.8
23253;BME280;11795;47.054;15.408;2023-07-13T00:20:00;97130;;;22.7;57.3
23253;BME280;11795;47.054;15.408;2023-07-13T00:22:00;97120;;;22.8;57.2
23253;BME280;11795;47.054;15.408;2023-07-13T00:24:01;97100;;;22.8;57.1
23253;BME280;11795;47.054;15.408;2023-07-13T00:26:01;97090;;;22.7;57.4
23253;BME280;11795;47.054;15.408;2023-07-13T00:28:00;97100;;;22.9;57.0
23253;BME280;11795;47.054;15.408;2023-07-13T00:30:00;97110;;;22.7;57.5
23253;BME280;11795;47.054;15.408;2023-07-13T00:32:01;97120;;;22.7;57.7
23253;BME280;11795;47.054;15.408;2023-07-13T00:34:00;97110;;;22.8;57.2
23253;BME280;11795;47.054;15.408;2023-07-13T00:36:01;97090;;;22.6;57.9
23253;BME280;11795;47.054;15.408;2023-07-13T00:38:01;97070;;;22.8;57.1
23253;BME280;11795;47.054;15.408;2023-07-13T00:40:00;97060;;;22.6;57.4
23253;BME280;11795;47.054;15.408;2023-07-13T00:42:01;97050;;;22.6;57.5
23253;BME280;11795;47.054;15.408;2023-07-13T00:44:01;97050;;;22.7;57.3
23253;BME280;11795;47.054;15.408;2023-07-13T00:46:13;97070;;;22.6;57.8
23253;BME280;11795;47.054;15.408;2023-07-13T00:48:00;97070;;;22.8;57.4
23253;BME280;11795;47.054;15.408;2023-07-13T00:50:01;97080;;;22.7;57.7
23253;BME280;11795;47.054;15.408;2023-07-13T00:52:04;97070;;;22.7;57.8
23253;BME280;11795;47.054;15.408;2023-07-13T00:54:06;97050;;;22.7;57.9
23253;BME280;11795;47.054;15.408;2023-07-13T00:56:01;97030;;;22.6;58.2
23253;BME280;11795;47.054;15.408;2023-07-13T00:58:01;97030;;;22.8;57.8
23253;BME280;11795;47.054;15.408;2023-07-13T01:00:03;97030;;;22.6;58.1
23253;BME280;11795;47.054;15.408;2023-07-13T01:02:01;97030;;;22.6;58.3
23253;BME280;11795;47.054;15.408;2023-07-13T01:04:01;97040;;;22.7;58.1
23253;BME280;11795;47.054;15.408;2023-07-13T01:06:01;97030;;;22.6;58.3
23253;BME280;11795;47.054;15.408;2023-07-13T01:08:02;97030;;;22.8;58.0
23253;BME280;11795;47.054;15.408;2023-07-13T01:10:00;97010;;;22.7;58.2
23253;BME280;11795;47.054;15.408;2023-07-13T01:12:01;97000;;;22.7;57.9
23253;BME280;11795;47.054;15.408;2023-07-13T01:14:01;97020;;;22.7;58.1
23253;BME280;11795;47.054;15.408;2023-07-13T01:16:02;97060;;;22.5;59.0
23253;BME280;11795;47.054;15.408;2023-07-13T01:18:01;97090;;;22.7;58.3
23253;BME280;11795;47.054;15.408;2023-07-13T01:20:00;97110;;;22.7;58.7
23253;BME280;11795;47.054;15.408;2023-07-13T01:22:01;97130;;;22.6;59.3
23253;BME280;11795;47.054;15.408;2023-07-13T01:24:02;97130;;;22.6;59.8
23253;BME280;11795;47.054;15.408;2023-07-13T01:26:00;97120;;;22.5;61.5
23253;BME280;11795;47.054;15.408;2023-07-13T01:28:01;97110;;;22.6;61.8
23253;BME280;11795;47.054;15.408;2023-07-13T01:30:04;97110;;;22.5;62.4
23253;BME280;11795;47.054;15.408;2023-07-13T01:32:01;97130;;;22.4;62.7
23253;BME280;11795;47.054;15.408;2023-07-13T01:34:00;97130;;;22.5;63.5
23253;BME280;11795;47.054;15.408;2023-07-13T01:36:02;97150;;;22.4;63.8
23253;BME280;11795;47.054;15.408;2023-07-13T01:38:01;97170;;;22.4;63.8
23253;BME280;11795;47.054;15.408;2023-07-13T01:40:00;97190;;;22.3;65.2
23253;BME280;11795;47.054;15.408;2023-07-13T01:42:01;97200;;;22.3;66.9
23253;BME280;11795;47.054;15.408;2023-07-13T01:44:00;97200;;;22.3;67.8
23253;BME280;11795;47.054;15.408;2023-07-13T01:46:00;97210;;;22.1;68.2
23253;BME280;11795;47.054;15.408;2023-07-13T01:48:01;97220;;;22.2;68.4
23253;BME280;11795;47.054;15.408;2023-07-13T01:50:00;97260;;;22.1;68.8
23253;BME280;11795;47.054;15.408;2023-07-13T01:52:00;97300;;;21.9;70.0
23253;BME280;11795;47.054;15.408;2023-07-13T01:54:00;97350;;;22.0;69.8
23253;BME280;11795;47.054;15.408;2023-07-13T01:56:00;97390;;;21.8;71.1
23253;BME280;11795;47.054;15.408;2023-07-13T01:58:01;97430;;;21.9;70.9
23253;BME280;11795;47.054;15.408;2023-07-13T02:00:03;97450;;;21.7;71.3
23253;BME280;11795;47.054;15.408;2023-07-13T02:02:00;97480;;;21.5;72.6
23253;BME280;11795;47.054;15.408;2023-07-13T02:04:01;97500;;;21.4;72.9
23253;BME280;11795;47.054;15.408;2023-07-13T02:06:00;97510;;;21.2;74.2
23253;BME280;11795;47.054;15.408;2023-07-13T02:08:00;97520;;;21.3;73.4
23253;BME280;11795;47.054;15.408;2023-07-13T02:10:01;97540;;;21.2;74.1
23253;BME280;11795;47.054;15.408;2023-07-13T02:12:00;97560;;;21.1;74.6
23253;BME280;11795;47.054;15.408;2023-07-13T02:14:01;97560;;;21.1;74.6
23253;BME280;11795;47.054;15.408;2023-07-13T02:16:01;97550;;;20.9;75.6
23253;BME280;11795;47.054;15.408;2023-07-13T02:18:00;97540;;;21.0;76.0
23253;BME280;11795;47.054;15.408;2023-07-13T02:20:01;97530;;;20.8;77.0
23253;BME280;11795;47.054;15.408;2023-07-13T02:22:00;97510;;;20.7;77.7
23253;BME280;11795;47.054;15.408;2023-07-13T02:24:00;97490;;;20.8;77.3
23253;BME280;11795;47.054;15.408;2023-07-13T02:26:03;97470;;;20.6;78.4
23253;BME280;11795;47.054;15.408;2023-07-13T02:28:00;97450;;;20.8;78.4
23253;BME280;11795;47.054;15.408;2023-07-13T02:30:01;97450;;;20.6;79.0
23253;BME280;11795;47.054;15.408;2023-07-13T02:32:00;97420;;;20.4;80.5
23253;BME280;11795;47.054;15.408;2023-07-13T02:34:00;97400;;;20.5;80.0
23253;BME280;11795;47.054;15.408;2023-07-13T02:36:00;97370;;;20.4;81.0
23253;BME280;11795;47.054;15.408;2023-07-13T02:38:00;97320;;;20.5;80.9
23253;BME280;11795;47.054;15.408;2023-07-13T02:40:00;97270;;;20.4;81.6
23253;BME280;11795;47.054;15.408;2023-07-13T02:42:00;97220;;;20.3;82.9
23253;BME280;11795;47.054;15.408;2023-07-13T02:44:03;97230;;;20.4;83.2
23253;BME280;11795;47.054;15.408;2023-07-13T02:46:06;97240;;;20.3;84.1
23253;BME280;11795;47.054;15.408;2023-07-13T02:48:00;97240;;;20.4;83.6
23253;BME280;11795;47.054;15.408;2023-07-13T02:50:01;97240;;;20.2;83.7
23253;BME280;11795;47.054;15.408;2023-07-13T02:52:01;97240;;;20.2;83.5
23253;BME280;11795;47.054;15.408;2023-07-13T02:54:00;97230;;;20.2;82.9
23253;BME280;11795;47.054;15.408;2023-07-13T02:56:00;97250;;;20.1;83.8
23253;BME280;11795;47.054;15.408;2023-07-13T02:58:01;97270;;;20.3;83.4
23253;BME280;11795;47.054;15.408;2023-07-13T03:00:02;97290;;;20.2;83.9
23253;BME280;11795;47.054;15.408;2023-07-13T03:02:01;97310;;;20.1;84.9
23253;BME280;11795;47.054;15.408;2023-07-13T03:04:00;97320;;;20.3;84.6
23253;BME280;11795;47.054;15.408;2023-07-13T03:06:02;97340;;;20.1;85.4
23253;BME280;11795;47.054;15.408;2023-07-13T03:08:00;97380;;;20.4;84.2
23253;BME280;11795;47.054;15.408;2023-07-13T03:10:00;97380;;;20.2;84.4
23253;BME280;11795;47.054;15.408;2023-07-13T03:12:01;97420;;;20.1;84.6
23253;BME280;11795;47.054;15.408;2023-07-13T03:14:00;97470;;;20.4;83.0
23253;BME280;11795;47.054;15.408;2023-07-13T03:16:00;97430;;;20.2;84.2
23253;BME280;11795;47.054;15.408;2023-07-13T03:18:01;97420;;;20.2;83.8
23253;BME280;11795;47.054;15.408;2023-07-13T03:20:00;97430;;;20.1;83.8
23253;BME280;11795;47.054;15.408;2023-07-13T03:22:00;97430;;;20.0;84.3
23253;BME280;11795;47.054;15.408;2023-07-13T03:24:00;97410;;;20.1;84.0
23253;BME280;11795;47.054;15.408;2023-07-13T03:26:03;97390;;;20.0;84.7
23253;BME280;11795;47.054;15.408;2023-07-13T03:28:00;97380;;;20.1;84.5
23253;BME280;11795;47.054;15.408;2023-07-13T03:30:00;97360;;;20.0;84.7
23253;BME280;11795;47.054;15.408;2023-07-13T03:32:00;97330;;;20.0;84.9
23253;BME280;11795;47.054;15.408;2023-07-13T03:34:01;97270;;;20.1;83.8
23253;BME280;11795;47.054;15.408;2023-07-13T03:36:01;97210;;;19.9;85.0
23253;BME280;11795;47.054;15.408;2023-07-13T03:38:01;97160;;;19.9;85.4
23253;BME280;11795;47.054;15.408;2023-07-13T03:40:01;97080;;;19.8;85.8
23253;BME280;11795;47.054;15.408;2023-07-13T03:42:00;97040;;;19.8;86.5
23253;BME280;11795;47.054;15.408;2023-07-13T03:44:00;97040;;;19.9;86.8
23253;BME280;11795;47.054;15.408;2023-07-13T03:46:00;97030;;;19.8;87.6
23253;BME280;11795;47.054;15.408;2023-07-13T03:48:00;97030;;;19.9;87.4
23253;BME280;11795;47.054;15.408;2023-07-13T03:50:01;97030;;;19.8;87.4
23253;BME280;11795;47.054;15.408;2023-07-13T03:52:00;97050;;;19.8;87.7
23253;BME280;11795;47.054;15.408;2023-07-13T03:54:01;97080;;;19.9;87.1
23253;BME280;11795;47.054;15.408;2023-07-13T03:56:01;97110;;;19.9;87.4
23253;BME280;11795;47.054;15.408;2023-07-13T04:00:00;97110;;;19.9;87.9
23253;BME280;11795;47.054;15.408;2023-07-13T04:02:00;97130;;;19.7;89.4
23253;BME280;11795;47.054;15.408;2023-07-13T04:04:00;97160;;;20.0;88.4
23253;BME280;11795;47.054;15.408;2023-07-13T04:06:02;97180;;;19.8;89.3
23253;BME280;11795;47.054;15.408;2023-07-13T04:08:00;97200;;;19.8;89.7
23253;BME280;11795;47.054;15.408;2023-07-13T04:10:00;97210;;;19.8;89.5
23253;BME280;11795;47.054;15.408;2023-07-13T04:12:00;97220;;;19.7;90.2
23253;BME280;11795;47.054;15.408;2023-07-13T04:14:00;97220;;;19.8;89.4
23253;BME280;11795;47.054;15.408;2023-07-13T04:16:00;97230;;;19.7;89.9
23253;BME280;11795;47.054;15.408;2023-07-13T04:18:00;97240;;;19.8;89.2
23253;BME280;11795;47.054;15.408;2023-07-13T04:20:01;97240;;;19.8;87.4
23253;BME280;11795;47.054;15.408;2023-07-13T04:22:00;97240;;;19.7;87.8
23253;BME280;11795;47.054;15.408;2023-07-13T04:24:00;97240;;;19.8;87.3
23253;BME280;11795;47.054;15.408;2023-07-13T04:26:00;97250;;;19.7;88.1
23253;BME280;11795;47.054;15.408;2023-07-13T04:28:01;97240;;;19.8;87.7
23253;BME280;11795;47.054;15.408;2023-07-13T04:30:00;97250;;;19.9;87.1
23253;BME280;11795;47.054;15.408;2023-07-13T04:32:01;97260;;;19.9;86.8
23253;BME280;11795;47.054;15.408;2023-07-13T04:34:00;97250;;;20.0;85.6
23253;BME280;11795;47.054;15.408;2023-07-13T04:36:01;97260;;;20.0;85.3
23253;BME280;11795;47.054;15.408;2023-07-13T04:38:01;97260;;;20.0;84.9
23253;BME280;11795;47.054;15.408;2023-07-13T04:40:01;97270;;;20.0;82.4
23253;BME280;11795;47.054;15.408;2023-07-13T04:42:00;97280;;;19.9;83.2
23253;BME280;11795;47.054;15.408;2023-07-13T04:44:00;97290;;;20.1;82.4
23253;BME280;11795;47.054;15.408;2023-07-13T04:46:03;97290;;;20.0;82.5
23253;BME280;11795;47.054;15.408;2023-07-13T04:48:00;97290;;;20.0;82.8
23253;BME280;11795;47.054;15.408;2023-07-13T04:50:01;97280;;;20.1;82.3
23253;BME280;11795;47.054;15.408;2023-07-13T04:52:00;97280;;;20.0;83.3
23253;BME280;11795;47.054;15.408;2023-07-13T04:54:00;97280;;;20.2;82.7
23253;BME280;11795;47.054;15.408;2023-07-13T04:56:01;97280;;;20.2;83.4
23253;BME280;11795;47.054;15.408;2023-07-13T04:58:00;97270;;;20.2;83.5
23253;BME280;11795;47.054;15.408;2023-07-13T05:00:01;97270;;;20.3;82.4
23253;BME280;11795;47.054;15.408;2023-07-13T05:02:01;97270;;;20.2;82.8
23253;BME280;11795;47.054;15.408;2023-07-13T05:04:00;97260;;;20.4;82.0
23253;BME280;11795;47.054;15.408;2023-07-13T05:06:06;97260;;;20.3;82.7
23253;BME280;11795;47.054;15.408;2023-07-13T05:08:01;97260;;;20.3;83.2
23253;BME280;11795;47.054;15.408;2023-07-13T05:10:00;97270;;;20.5;82.5
23253;BME280;11795;47.054;15.408;2023-07-13T05:12:00;97260;;;20.5;82.6
23253;BME280;11795;47.054;15.408;2023-07-13T05:14:01;97260;;;20.7;81.5
23253;BME280;11795;47.054;15.408;2023-07-13T05:16:02;97270;;;20.7;81.9
23253;BME280;11795;47.054;15.408;2023-07-13T05:18:00;97270;;;20.7;81.0
23253;BME280;11795;47.054;15.408;2023-07-13T05:20:00;97270;;;20.8;80.6
23253;BME280;11795;47.054;15.408;2023-07-13T05:22:01;97270;;;20.9;81.2
23253;BME280;11795;47.054;15.408;2023-07-13T05:24:00;97270;;;21.0;79.4
23253;BME280;11795;47.054;15.408;2023-07-13T05:26:01;97270;;;21.0;80.2
23253;BME280;11795;47.054;15.408;2023-07-13T05:28:00;97270;;;21.0;80.2
23253;BME280;11795;47.054;15.408;2023-07-13T05:30:00;97260;;;21.2;79.2
23253;BME280;11795;47.054;15.408;2023-07-13T05:32:00;97260;;;21.3;79.2
23253;BME280;11795;47.054;15.408;2023-07-13T05:34:00;97260;;;21.5;77.7
23253;BME280;11795;47.054;15.408;2023-07-13T05:36:01;97260;;;21.5;78.4
23253;BME280;11795;47.054;15.408;2023-07-13T05:38:00;97250;;;21.6;77.9
23253;BME280;11795;47.054;15.408;2023-07-13T05:40:00;97250;;;21.9;77.3
23253;BME280;11795;47.054;15.408;2023-07-13T05:42:01;97250;;;22.0;76.6
23253;BME280;11795;47.054;15.408;2023-07-13T05:44:00;97240;;;22.3;75.5
23253;BME280;11795;47.054;15.408;2023-07-13T05:46:00;97250;;;22.3;75.3
23253;BME280;11795;47.054;15.408;2023-07-13T05:48:01;97250;;;22.4;75.6
23253;BME280;11795;47.054;15.408;2023-07-13T05:50:00;97250;;;22.6;73.9
23253;BME280;11795;47.054;15.408;2023-07-13T05:52:01;97250;;;22.6;74.2
23253;BME280;11795;47.054;15.408;2023-07-13T05:54:00;97250;;;22.8;73.6
23253;BME280;11795;47.054;15.408;2023-07-13T05:56:00;97270;;;22.8;73.3
23253;BME280;11795;47.054;15.408;2023-07-13T05:58:01;97270;;;22.9;73.6
23253;BME280;11795;47.054;15.408;2023-07-13T06:00:00;97270;;;23.1;73.2
23253;BME280;11795;47.054;15.408;2023-07-13T06:02:00;97270;;;23.1;73.4
23253;BME280;11795;47.054;15.408;2023-07-13T06:04:00;97270;;;23.4;73.4
23253;BME280;11795;47.054;15.408;2023-07-13T06:06:01;97270;;;23.3;71.4
23253;BME280;11795;47.054;15.408;2023-07-13T06:08:00;97270;;;23.3;71.6
23253;BME280;11795;47.054;15.408;2023-07-13T06:10:00;97270;;;23.4;69.5
23253;BME280;11795;47.054;15.408;2023-07-13T06:12:00;97270;;;23.4;70.2
23253;BME280;11795;47.054;15.408;2023-07-13T06:14:00;97260;;;23.5;68.2
23253;BME280;11795;47.054;15.408;2023-07-13T06:16:01;97260;;;23.4;68.0
23253;BME280;11795;47.054;15.408;2023-07-13T06:18:00;97270;;;23.3;68.5
23253;BME280;11795;47.054;15.408;2023-07-13T06:20:00;97280;;;23.5;68.0
23253;BME280;11795;47.054;15.408;2023-07-13T06:22:00;97280;;;23.5;68.8
23253;BME280;11795;47.054;15.408;2023-07-13T06:24:00;97280;;;23.8;67.9
23253;BME280;11795;47.054;15.408;2023-07-13T06:26:01;97280;;;23.7;68.0
23253;BME280;11795;47.054;15.408;2023-07-13T06:28:00;97280;;;23.7;69.0
23253;BME280;11795;47.054;15.408;2023-07-13T06:30:01;97270;;;23.9;68.1
23253;BME280;11795;47.054;15.408;2023-07-13T06:32:01;97270;;;23.9;68.4
23253;BME280;11795;47.054;15.408;2023-07-13T06:34:00;97270;;;24.1;66.5
23253;BME280;11795;47.054;15.408;2023-07-13T06:36:02;97280;;;24.0;66.4
23253;BME280;11795;47.054;15.408;2023-07-13T06:38:01;97270;;;24.0;63.8
23253;BME280;11795;47.054;15.408;2023-07-13T06:40:00;97270;;;24.1;63.8
23253;BME280;11795;47.054;15.408;2023-07-13T06:42:00;97270;;;24.2;63.5
23253;BME280;11795;47.054;15.408;2023-07-13T06:44:00;97270;;;24.4;61.3
23253;BME280;11795;47.054;15.408;2023-07-13T06:46:01;97270;;;24.4;61.6
23253;BME280;11795;47.054;15.408;2023-07-13T06:48:00;97270;;;24.4;61.8
23253;BME280;11795;47.054;15.408;2023-07-13T06:50:01;97280;;;24.5;60.3
23253;BME280;11795;47.054;15.408;2023-07-13T06:52:00;97280;;;24.4;60.3
23253;BME280;11795;47.054;15.408;2023-07-13T06:54:00;97290;;;24.6;60.6
23253;BME280;11795;47.054;15.408;2023-07-13T06:56:01;97290;;;24.5;59.8
23253;BME280;11795;47.054;15.408;2023-07-13T06:58:00;97290;;;24.6;61.1
23253;BME280;11795;47.054;15.408;2023-07-13T07:00:00;97300;;;24.8;59.6
23253;BME280;11795;47.054;15.408;2023-07-13T07:02:00;97300;;;24.7;57.8
23253;BME280;11795;47.054;15.408;2023-07-13T07:04:01;97300;;;24.9;58.3
23253;BME280;11795;47.054;15.408;2023-07-13T07:06:01;97300;;;24.9;58.6
23253;BME280;11795;47.054;15.408;2023-07-13T07:08:01;97290;;;25.0;58.5
23253;BME280;11795;47.054;15.408;2023-07-13T07:10:01;97290;;;25.2;57.9
23253;BME280;11795;47.054;15.408;2023-07-13T07:12:02;97290;;;25.2;56.2
23253;BME280;11795;47.054;15.408;2023-07-13T07:14:00;97300;;;25.4;56.1
23253;BME280;11795;47.054;15.408;2023-07-13T07:16:00;97300;;;25.4;56.1
23253;BME280;11795;47.054;15.408;2023-07-13T07:18:00;97300;;;25.4;56.3
23253;BME280;11795;47.054;15.408;2023-07-13T07:20:00;97300;;;25.7;56.0
23253;BME280;11795;47.054;15.408;2023-07-13T07:22:00;97300;;;25.8;56.1
23253;BME280;11795;47.054;15.408;2023-07-13T07:24:00;97300;;;26.0;53.0
23253;BME280;11795;47.054;15.408;2023-07-13T07:26:01;97290;;;25.9;53.5
23253;BME280;11795;47.054;15.408;2023-07-13T07:28:00;97290;;;25.9;53.5
23253;BME280;11795;47.054;15.408;2023-07-13T07:30:00;97300;;;26.2;53.5
23253;BME280;11795;47.054;15.408;2023-07-13T07:32:00;97290;;;26.2;53.8
23253;BME280;11795;47.054;15.408;2023-07-13T07:34:01;97290;;;26.4;52.5
23253;BME280;11795;47.054;15.408;2023-07-13T07:36:00;97280;;;26.4;51.8
23253;BME280;11795;47.054;15.408;2023-07-13T07:38:00;97280;;;26.4;52.9
23253;BME280;11795;47.054;15.408;2023-07-13T07:40:00;97270;;;26.6;53.1
23253;BME280;11795;47.054;15.408;2023-07-13T07:42:00;97270;;;26.7;52.8
23253;BME280;11795;47.054;15.408;2023-07-13T07:44:01;97270;;;26.9;52.1
23253;BME280;11795;47.054;15.408;2023-07-13T07:46:01;97280;;;26.9;51.1
23253;BME280;11795;47.054;15.408;2023-07-13T07:48:01;97270;;;26.9;51.2
23253;BME280;11795;47.054;15.408;2023-07-13T07:50:00;97270;;;27.0;50.8
23253;BME280;11795;47.054;15.408;2023-07-13T07:52:01;97260;;;27.0;50.7
23253;BME280;11795;47.054;15.408;2023-07-13T07:54:00;97260;;;27.1;51.3
23253;BME280;11795;47.054;15.408;2023-07-13T07:56:00;97260;;;27.1;51.6
23253;BME280;11795;47.054;15.408;2023-07-13T07:58:00;97270;;;27.1;51.9
23253;BME280;11795;47.054;15.408;2023-07-13T08:00:00;97280;;;27.4;51.4
23253;BME280;11795;47.054;15.408;2023-07-13T08:02:03;97280;;;27.5;51.1
23253;BME280;11795;47.054;15.408;2023-07-13T08:04:00;97280;;;27.5;49.4
23253;BME280;11795;47.054;15.408;2023-07-13T08:06:01;97290;;;27.4;49.9
23253;BME280;11795;47.054;15.408;2023-07-13T08:08:00;97290;;;27.4;49.3
23253;BME280;11795;47.054;15.408;2023-07-13T08:10:01;97290;;;27.6;49.0
23253;BME280;11795;47.054;15.408;2023-07-13T08:12:00;97280;;;27.6;48.5
23253;BME280;11795;47.054;15.408;2023-07-13T08:14:00;97290;;;27.7;48.2
23253;BME280;11795;47.054;15.408;2023-07-13T08:16:01;97290;;;27.8;47.7
23253;BME280;11795;47.054;15.408;2023-07-13T08:18:00;97290;;;27.9;47.0
23253;BME280;11795;47.054;15.408;2023-07-13T08:20:00;97290;;;28.2;47.4
23253;BME280;11795;47.054;15.408;2023-07-13T08:22:00;97290;;;28.3;45.9
23253;BME280;11795;47.054;15.408;2023-07-13T08:24:00;97290;;;28.5;45.9
23253;BME280;11795;47.054;15.408;2023-07-13T08:26:02;97280;;;28.5;45.5
23253;BME280;11795;47.054;15.408;2023-07-13T08:28:02;97270;;;28.6;44.7
23253;BME280;11795;47.054;15.408;2023-07-13T08:30:00;97260;;;28.7;44.2
23253;BME280;11795;47.054;15.408;2023-07-13T08:32:00;97260;;;28.7;43.4
23253;BME280;11795;47.054;15.408;2023-07-13T08:34:00;97260;;;28.8;44.4
23253;BME280;11795;47.054;15.408;2023-07-13T08:36:00;97260;;;29.0;44.5
23253;BME280;11795;47.054;15.408;2023-07-13T08:38:00;97270;;;29.0;44.2
23253;BME280;11795;47.054;15.408;2023-07-13T08:40:00;97270;;;29.1;43.1
23253;BME280;11795;47.054;15.408;2023-07-13T08:42:07;97280;;;29.1;43.4
23253;BME280;11795;47.054;15.408;2023-07-13T08:44:02;97270;;;29.3;43.7
23253;BME280;11795;47.054;15.408;2023-07-13T08:46:07;97260;;;29.5;42.4
23253;BME280;11795;47.054;15.408;2023-07-13T08:48:03;97270;;;29.5;42.1
23253;BME280;11795;47.054;15.408;2023-07-13T08:50:02;97270;;;29.7;41.5
23253;BME280;11795;47.054;15.408;2023-07-13T08:52:06;97270;;;29.7;41.5
23253;BME280;11795;47.054;15.408;2023-07-13T08:54:03;97270;;;29.7;40.4
23253;BME280;11795;47.054;15.408;2023-07-13T08:56:01;97270;;;29.8;40.9
23253;BME280;11795;47.054;15.408;2023-07-13T08:58:04;97260;;;29.8;41.8
23253;BME280;11795;47.054;15.408;2023-07-13T09:00:00;97260;;;30.2;41.5
23253;BME280;11795;47.054;15.408;2023-07-13T09:02:16;97260;;;30.2;40.6
23253;BME280;11795;47.054;15.408;2023-07-13T09:04:06;97260;;;30.2;40.3
23253;BME280;11795;47.054;15.408;2023-07-13T09:06:02;97260;;;30.4;40.4
23253;BME280;11795;47.054;15.408;2023-07-13T09:08:14;97250;;;30.4;39.4
23253;BME280;11795;47.054;15.408;2023-07-13T09:10:12;97250;;;30.5;38.3
23253;BME280;11795;47.054;15.408;2023-07-13T09:12:08;97240;;;30.3;38.8
23253;BME280;11795;47.054;15.408;2023-07-13T09:14:06;97240;;;30.3;39.5
23253;BME280;11795;47.054;15.408;2023-07-13T09:16:01;97250;;;30.5;39.7
23253;BME280;11795;47.054;15.408;2023-07-13T09:18:04;97260;;;30.6;39.7
23253;BME280;11795;47.054;15.408;2023-07-13T09:20:04;97250;;;30.9;39.6
23253;BME280;11795;47.054;15.408;2023-07-13T09:22:02;97250;;;30.9;39.2
23253;BME280;11795;47.054;15.408;2023-07-13T09:24:16;97260;;;30.9;38.8
23253;BME280;11795;47.054;15.408;2023-07-13T09:26:05;97260;;;31.1;39.1
23253;BME280;11795;47.054;15.408;2023-07-13T09:28:11;97270;;;31.2;37.8
23253;BME280;11795;47.054;15.408;2023-07-13T09:30:09;97260;;;31.5;37.5
23253;BME280;11795;47.054;15.408;2023-07-13T09:32:04;97270;;;31.5;36.4
23253;BME280;11795;47.054;15.408;2023-07-13T09:34:00;97270;;;31.5;37.4
23253;BME280;11795;47.054;15.408;2023-07-13T09:36:01;97270;;;31.7;36.8
23253;BME280;11795;47.054;15.408;2023-07-13T09:38:10;97260;;;31.6;36.0
23253;BME280;11795;47.054;15.408;2023-07-13T09:40:01;97260;;;31.7;36.1
23253;BME280;11795;47.054;15.408;2023-07-13T09:42:06;97260;;;31.5;37.4
23253;BME280;11795;47.054;15.408;2023-07-13T09:44:06;97260;;;31.5;37.5
23253;BME280;11795;47.054;15.408;2023-07-13T09:46:01;97260;;;31.7;37.4
23253;BME280;11795;47.054;15.408;2023-07-13T09:48:04;97260;;;31.6;36.4
23253;BME280;11795;47.054;15.408;2023-07-13T09:50:03;97260;;;31.7;35.9
23253;BME280;11795;47.054;15.408;2023-07-13T09:52:03;97260;;;31.5;35.4
23253;BME280;11795;47.054;15.408;2023-07-13T09:54:01;97260;;;31.3;35.3
23253;BME280;11795;47.054;15.408;2023-07-13T09:56:01;97260;;;31.3;35.9
23253;BME280;11795;47.054;15.408;2023-07-13T09:58:04;97260;;;31.3;36.2
23253;BME280;11795;47.054;15.408;2023-07-13T10:00:01;97260;;;31.6;36.5
23253;BME280;11795;47.054;15.408;2023-07-13T10:02:00;97260;;;31.6;36.0
23253;BME280;11795;47.054;15.408;2023-07-13T10:04:01;97260;;;31.6;35.9
23253;BME280;11795;47.054;15.408;2023-07-13T10:06:20;97260;;;31.7;35.6
23253;BME280;11795;47.054;15.408;2023-07-13T10:08:00;97260;;;31.6;35.4
23253;BME280;11795;47.054;15.408;2023-07-13T10:10:01;97260;;;31.6;35.6
23253;BME280;11795;47.054;15.408;2023-07-13T10:12:01;97260;;;31.5;36.1
23253;BME280;11795;47.054;15.408;2023-07-13T10:14:02;97270;;;31.5;36.7
23253;BME280;11795;47.054;15.408;2023-07-13T10:16:01;97260;;;31.8;36.6
23253;BME280;11795;47.054;15.408;2023-07-13T10:18:00;97250;;;31.7;35.7
23253;BME280;11795;47.054;15.408;2023-07-13T10:20:05;97250;;;31.9;36.2
23253;BME280;11795;47.054;15.408;2023-07-13T10:22:09;97250;;;31.8;35.6
23253;BME280;11795;47.054;15.408;2023-07-13T10:24:05;97250;;;31.6;35.5
23253;BME280;11795;47.054;15.408;2023-07-13T10:26:02;97240;;;31.7;35.4
23253;BME280;11795;47.054;15.408;2023-07-13T10:28:04;97250;;;31.6;35.9
23253;BME280;11795;47.054;15.408;2023-07-13T10:30:04;97240;;;31.7;36.1
23253;BME280;11795;47.054;15.408;2023-07-13T10:32:00;97240;;;31.7;36.5
23253;BME280;11795;47.054;15.408;2023-07-13T10:34:02;97240;;;31.7;36.6
23253;BME280;11795;47.054;15.408;2023-07-13T10:36:08;97250;;;31.9;35.3
23253;BME280;11795;47.054;15.408;2023-07-13T10:38:04;97250;;;31.8;35.1
23253;BME280;11795;47.054;15.408;2023-07-13T10:40:01;97250;;;32.0;35.0
23253;BME280;11795;47.054;15.408;2023-07-13T10:42:06;97250;;;32.0;35.4
23253;BME280;11795;47.054;15.408;2023-07-13T10:44:01;97250;;;31.6;34.7
23253;BME280;11795;47.054;15.408;2023-07-13T10:46:01;97250;;;31.8;34.7
23253;BME280;11795;47.054;15.408;2023-07-13T10:48:00;97250;;;31.8;34.6
23253;BME280;11795;47.054;15.408;2023-07-13T10:50:01;97250;;;31.9;34.6
23253;BME280;11795;47.054;15.408;2023-07-13T10:52:01;97240;;;31.9;34.7
23253;BME280;11795;47.054;15.408;2023-07-13T10:54:15;97250;;;32.0;35.8
23253;BME280;11795;47.054;15.408;2023-07-13T10:56:02;97250;;;31.9;35.1
23253;BME280;11795;47.054;15.408;2023-07-13T10:58:02;97250;;;31.9;35.5
23253;BME280;11795;47.054;15.408;2023-07-13T11:00:14;97250;;;32.2;35.6
23253;BME280;11795;47.054;15.408;2023-07-13T11:02:11;97250;;;32.1;35.9
23253;BME280;11795;47.054;15.408;2023-07-13T11:04:03;97250;;;32.1;35.6
23253;BME280;11795;47.054;15.408;2023-07-13T11:06:08;97250;;;32.3;35.2
23253;BME280;11795;47.054;15.408;2023-07-13T11:08:12;97240;;;32.2;35.4
23253;BME280;11795;47.054;15.408;2023-07-13T11:10:05;97230;;;32.2;35.0
23253;BME280;11795;47.054;15.408;2023-07-13T11:12:01;97230;;;32.0;33.9